createdAt,value
2019-06-20T00:00:22.576Z,0.00
2019-06-20T00:01:22.552Z,0.00
2019-06-20T00:02:22.559Z,0.00
2019-06-20T00:03:22.595Z,0.00
2019-06-20T00:04:22.570Z,0.00
2019-06-20T00:05:22.536Z,0.00
2019-06-20T00:06:22.494Z,0.00
2019-06-20T00:07:22.507Z,0.00
2019-06-20T00:08:22.508Z,0.00
2019-06-20T00:09:22.466Z,0.00
2019-06-20T00:10:22.475Z,0.00
2019-06-20T00:11:22.439Z,0.00
2019-06-20T00:12:22.981Z,0.00
2019-06-20T00:13:22.437Z,0.00
2019-06-20T00:14:22.435Z,0.00
2019-06-20T00:15:22.406Z,0.00
2019-06-20T00:16:22.378Z,0.00
2019-06-20T00:17:22.370Z,0.00
2019-06-20T00:18:22.373Z,0.00
2019-06-20T00:19:22.352Z,0.00
2019-06-20T00:20:22.335Z,0.00
2019-06-20T00:21:22.381Z,0.00
2019-06-20T00:22:22.316Z,0.00
2019-06-20T00:23:22.349Z,0.00
2019-06-20T00:24:22.324Z,0.00
2019-06-20T00:25:22.298Z,0.00
2019-06-20T00:26:22.297Z,0.00
2019-06-20T00:27:22.273Z,0.00
2019-06-20T00:28:22.299Z,0.00
2019-06-20T00:29:22.282Z,0.00
2019-06-20T00:30:22.236Z,0.00
2019-06-20T00:31:22.227Z,0.00
2019-06-20T00:32:22.203Z,0.00
2019-06-20T00:33:22.197Z,0.00
2019-06-20T00:34:22.244Z,0.00
2019-06-20T00:35:22.192Z,0.00
2019-06-20T00:36:22.161Z,0.00
2019-06-20T00:37:22.150Z,0.00
2019-06-20T00:38:22.196Z,0.00
2019-06-20T00:39:22.135Z,0.00
2019-06-20T00:40:22.136Z,0.00
2019-06-20T00:41:22.099Z,0.00
2019-06-20T00:42:22.111Z,0.00
2019-06-20T00:43:22.081Z,0.00
2019-06-20T00:44:22.113Z,0.00
2019-06-20T00:45:22.069Z,0.00
2019-06-20T00:46:22.060Z,0.00
2019-06-20T00:47:22.022Z,0.00
2019-06-20T00:48:22.031Z,0.00
2019-06-20T00:49:22.043Z,0.00
2019-06-20T00:50:22.043Z,0.00
2019-06-20T00:51:21.996Z,0.00
2019-06-20T00:52:22.016Z,0.00
2019-06-20T00:53:22.000Z,0.00
2019-06-20T00:54:21.985Z,0.00
2019-06-20T00:55:21.941Z,0.00
2019-06-20T00:56:21.976Z,0.00
2019-06-20T00:57:21.948Z,0.00
2019-06-20T00:58:21.938Z,0.00
2019-06-20T00:59:21.965Z,0.00
2019-06-20T01:00:21.917Z,0.00
2019-06-20T01:01:21.898Z,0.00
2019-06-20T01:03:31.126Z,0.00
2019-06-20T01:04:32.080Z,0.00
2019-06-20T01:05:32.053Z,0.00
2019-06-20T01:06:32.073Z,0.00
2019-06-20T01:07:32.072Z,0.00
2019-06-20T01:08:32.018Z,0.00
2019-06-20T01:09:32.053Z,0.00
2019-06-20T01:10:32.033Z,0.00
2019-06-20T01:11:32.000Z,0.00
2019-06-20T01:12:31.982Z,0.00
2019-06-20T01:13:34.130Z,0.00
2019-06-20T01:14:31.983Z,0.00
2019-06-20T01:15:31.950Z,0.00
2019-06-20T01:16:31.981Z,0.00
2019-06-20T01:17:31.924Z,0.00
2019-06-20T01:18:31.920Z,0.00
2019-06-20T01:19:31.935Z,0.00
2019-06-20T01:20:31.890Z,0.00
2019-06-20T01:21:31.913Z,0.00
2019-06-20T01:22:31.873Z,0.00
2019-06-20T01:23:31.889Z,0.00
2019-06-20T01:24:31.865Z,0.00
2019-06-20T01:25:31.836Z,0.00
2019-06-20T01:26:31.826Z,0.00
2019-06-20T01:27:31.834Z,0.00
2019-06-20T01:28:31.850Z,0.00
2019-06-20T01:29:31.813Z,0.00
2019-06-20T01:30:31.791Z,0.00
2019-06-20T01:31:31.792Z,0.00
2019-06-20T01:32:31.760Z,0.00
2019-06-20T01:33:31.823Z,0.00
2019-06-20T01:34:31.735Z,0.00
2019-06-20T01:35:31.724Z,0.00
2019-06-20T01:36:31.866Z,0.00
2019-06-20T01:37:31.717Z,0.00
2019-06-20T01:38:31.749Z,0.00
2019-06-20T01:39:31.732Z,0.00
2019-06-20T01:40:31.668Z,0.00
2019-06-20T01:41:31.653Z,0.00
2019-06-20T01:42:31.721Z,0.00
2019-06-20T01:43:31.666Z,0.00
2019-06-20T01:44:31.633Z,0.00
2019-06-20T01:45:31.613Z,0.00
2019-06-20T01:46:31.624Z,0.00
2019-06-20T01:47:31.596Z,0.00
2019-06-20T01:48:31.604Z,0.00
2019-06-20T01:49:31.640Z,0.00
2019-06-20T01:50:31.561Z,0.00
2019-06-20T01:51:31.540Z,0.00
2019-06-20T01:52:31.556Z,0.00
2019-06-20T01:53:31.552Z,0.00
2019-06-20T01:54:31.565Z,0.00
2019-06-20T01:55:31.525Z,0.00
2019-06-20T01:56:31.515Z,0.00
2019-06-20T01:57:31.501Z,0.00
2019-06-20T01:58:31.527Z,0.00
2019-06-20T01:59:31.462Z,0.00
2019-06-20T02:00:31.483Z,0.00
2019-06-20T02:01:31.462Z,0.00
2019-06-20T02:02:31.441Z,0.00
2019-06-20T02:03:31.468Z,0.00
2019-06-20T02:04:31.404Z,0.00
2019-06-20T02:05:31.391Z,0.00
2019-06-20T02:06:31.408Z,0.00
2019-06-20T02:07:31.398Z,0.00
2019-06-20T02:08:31.417Z,0.00
2019-06-20T02:09:31.361Z,0.00
2019-06-20T02:10:31.365Z,0.00
2019-06-20T02:11:31.327Z,0.00
2019-06-20T02:12:31.324Z,0.00
2019-06-20T02:13:31.341Z,0.00
2019-06-20T02:14:31.314Z,0.00
2019-06-20T02:15:31.275Z,0.00
2019-06-20T02:16:31.297Z,0.00
2019-06-20T02:17:31.281Z,0.00
2019-06-20T02:18:31.312Z,0.00
2019-06-20T02:19:31.256Z,0.00
2019-06-20T02:20:31.244Z,0.00
2019-06-20T02:21:31.299Z,0.00
2019-06-20T02:22:31.206Z,0.00
2019-06-20T02:23:31.269Z,0.00
2019-06-20T02:24:31.187Z,0.00
2019-06-20T02:25:31.179Z,0.00
2019-06-20T02:26:31.164Z,0.00
2019-06-20T02:27:31.166Z,0.00
2019-06-20T02:28:31.180Z,0.00
2019-06-20T02:29:31.125Z,4.00
2019-06-20T02:30:31.125Z,4.00
2019-06-20T02:31:31.125Z,4.00
2019-06-20T02:32:31.133Z,4.00
2019-06-20T02:33:31.180Z,0.00
2019-06-20T02:34:31.100Z,4.00
2019-06-20T02:35:31.143Z,4.00
2019-06-20T02:36:31.052Z,4.00
2019-06-20T02:37:31.047Z,4.00
2019-06-20T02:38:31.038Z,4.00
2019-06-20T02:39:31.132Z,8.00
2019-06-20T02:40:31.028Z,4.00
2019-06-20T02:41:31.000Z,8.00
2019-06-20T02:42:31.009Z,8.00
2019-06-20T02:43:31.012Z,12.00
2019-06-20T02:44:31.221Z,12.00
2019-06-20T02:45:31.002Z,16.00
2019-06-20T02:46:30.952Z,12.00
2019-06-20T02:47:30.988Z,16.00
2019-06-20T02:48:30.965Z,16.00
2019-06-20T02:49:30.932Z,16.00
2019-06-20T02:50:30.901Z,20.00
2019-06-20T02:51:30.904Z,20.00
2019-06-20T02:52:30.921Z,20.00
2019-06-20T02:53:30.929Z,24.00
2019-06-20T02:54:30.855Z,28.00
2019-06-20T02:55:30.890Z,32.00
2019-06-20T02:56:30.829Z,32.00
2019-06-20T02:57:30.824Z,40.00
2019-06-20T02:58:30.859Z,40.00
2019-06-20T02:59:30.811Z,40.00
2019-06-20T03:00:30.775Z,40.00
2019-06-20T03:01:30.804Z,44.00
2019-06-20T03:02:30.770Z,44.00
2019-06-20T03:04:39.983Z,52.00
2019-06-20T03:05:40.940Z,48.00
2019-06-20T03:06:40.910Z,52.00
2019-06-20T03:07:40.900Z,56.00
2019-06-20T03:08:40.937Z,60.00
2019-06-20T03:09:40.901Z,64.00
2019-06-20T03:10:40.876Z,68.00
2019-06-20T03:11:40.868Z,72.00
2019-06-20T03:12:40.884Z,80.00
2019-06-20T03:13:41.694Z,84.00
2019-06-20T03:14:45.566Z,96.00
2019-06-20T03:15:40.811Z,104.00
2019-06-20T03:16:40.869Z,116.00
2019-06-20T03:17:41.223Z,124.00
2019-06-20T03:18:41.696Z,136.00
2019-06-20T03:19:40.844Z,148.00
2019-06-20T03:20:40.798Z,164.00
2019-06-20T03:21:40.749Z,180.00
2019-06-20T03:22:40.857Z,196.00
2019-06-20T03:23:40.728Z,204.00
2019-06-20T03:24:40.718Z,216.00
2019-06-20T03:25:40.695Z,236.00
2019-06-20T03:26:40.694Z,264.00
2019-06-20T03:27:40.700Z,300.00
2019-06-20T03:28:40.669Z,332.00
2019-06-20T03:29:40.651Z,368.00
2019-06-20T03:30:40.646Z,400.00
2019-06-20T03:31:40.638Z,436.00
2019-06-20T03:32:40.648Z,460.00
2019-06-20T03:33:40.616Z,480.00
2019-06-20T03:34:40.608Z,504.00
2019-06-20T03:35:40.588Z,532.00
2019-06-20T03:36:40.572Z,556.00
2019-06-20T03:37:40.571Z,572.00
2019-06-20T03:38:40.553Z,560.00
2019-06-20T03:39:40.553Z,508.00
2019-06-20T03:40:40.537Z,440.00
2019-06-20T03:41:40.525Z,376.00
2019-06-20T03:42:40.534Z,360.00
2019-06-20T03:43:40.501Z,348.00
2019-06-20T03:44:40.497Z,356.00
2019-06-20T03:45:40.475Z,360.00
2019-06-20T03:46:40.469Z,368.00
2019-06-20T03:47:40.474Z,368.00
2019-06-20T03:48:40.447Z,372.00
2019-06-20T03:49:40.430Z,368.00
2019-06-20T03:50:40.410Z,388.00
2019-06-20T03:51:40.414Z,400.00
2019-06-20T03:52:40.419Z,428.00
2019-06-20T03:53:40.411Z,512.00
2019-06-20T03:54:40.388Z,652.00
2019-06-20T03:55:40.363Z,776.00
2019-06-20T03:56:40.355Z,856.00
2019-06-20T03:57:40.347Z,904.00
2019-06-20T03:58:40.332Z,948.00
2019-06-20T03:59:40.330Z,1044.00
2019-06-20T04:00:40.298Z,1148.00
2019-06-20T04:01:40.290Z,1196.00
2019-06-20T04:02:40.304Z,1180.00
2019-06-20T04:03:40.304Z,1188.00
2019-06-20T04:04:40.258Z,1244.00
2019-06-20T04:05:40.248Z,1332.00
2019-06-20T04:06:40.257Z,1416.00
2019-06-20T04:07:40.241Z,1480.00
2019-06-20T04:08:40.222Z,1536.00
2019-06-20T04:09:40.206Z,1576.00
2019-06-20T04:10:40.191Z,1624.00
2019-06-20T04:11:40.178Z,1652.00
2019-06-20T04:12:40.289Z,1680.00
2019-06-20T04:13:40.163Z,1704.00
2019-06-20T04:14:40.154Z,1736.00
2019-06-20T04:15:40.141Z,1776.00
2019-06-20T04:16:40.136Z,1824.00
2019-06-20T04:17:40.131Z,1876.00
2019-06-20T04:18:40.122Z,1916.00
2019-06-20T04:19:40.093Z,1936.00
2019-06-20T04:20:40.080Z,1908.00
2019-06-20T04:21:40.091Z,1812.00
2019-06-20T04:22:40.062Z,1704.00
2019-06-20T04:23:40.056Z,1632.00
2019-06-20T04:24:40.055Z,1624.00
2019-06-20T04:25:40.034Z,1588.00
2019-06-20T04:26:40.008Z,1520.00
2019-06-20T04:27:40.014Z,1428.00
2019-06-20T04:28:40.013Z,1332.00
2019-06-20T04:29:39.979Z,1172.00
2019-06-20T04:30:39.963Z,1032.00
2019-06-20T04:31:39.966Z,916.00
2019-06-20T04:32:39.943Z,824.00
2019-06-20T04:33:39.968Z,820.00
2019-06-20T04:34:39.934Z,876.00
2019-06-20T04:35:39.917Z,936.00
2019-06-20T04:36:39.897Z,984.00
2019-06-20T04:37:39.919Z,964.00
2019-06-20T04:38:39.901Z,888.00
2019-06-20T04:39:39.940Z,844.00
2019-06-20T04:40:39.864Z,876.00
2019-06-20T04:41:39.856Z,956.00
2019-06-20T04:42:39.850Z,1112.00
2019-06-20T04:43:39.842Z,1196.00
2019-06-20T04:44:39.825Z,1316.00
2019-06-20T04:45:39.825Z,1300.00
2019-06-20T04:46:39.794Z,1024.00
2019-06-20T04:47:39.792Z,788.00
2019-06-20T04:48:39.798Z,736.00
2019-06-20T04:49:39.767Z,712.00
2019-06-20T04:50:39.754Z,672.00
2019-06-20T04:51:39.893Z,648.00
2019-06-20T04:52:39.725Z,624.00
2019-06-20T04:53:39.748Z,564.00
2019-06-20T04:54:39.707Z,520.00
2019-06-20T04:55:39.741Z,588.00
2019-06-20T04:56:39.681Z,660.00
2019-06-20T04:57:39.673Z,644.00
2019-06-20T04:58:39.683Z,676.00
2019-06-20T04:59:39.650Z,708.00
2019-06-20T05:00:39.634Z,632.00
2019-06-20T05:01:39.663Z,588.00
2019-06-20T05:02:39.836Z,624.00
2019-06-20T05:03:39.632Z,772.00
2019-06-20T05:05:48.818Z,892.00
2019-06-20T05:06:49.802Z,808.00
2019-06-20T05:07:49.835Z,852.00
2019-06-20T05:08:49.779Z,896.00
2019-06-20T05:09:49.737Z,840.00
2019-06-20T05:10:50.524Z,844.00
2019-06-20T05:11:49.733Z,864.00
2019-06-20T05:12:49.717Z,876.00
2019-06-20T05:13:49.732Z,912.00
2019-06-20T05:14:49.689Z,976.00
2019-06-20T05:15:53.121Z,1048.00
2019-06-20T05:16:49.664Z,1140.00
2019-06-20T05:17:49.657Z,1256.00
2019-06-20T05:18:49.776Z,1360.00
2019-06-20T05:19:49.642Z,1348.00
2019-06-20T05:20:49.620Z,1476.00
2019-06-20T05:21:49.617Z,1480.00
2019-06-20T05:22:49.625Z,1300.00
2019-06-20T05:23:49.604Z,1168.00
2019-06-20T05:24:49.593Z,1076.00
2019-06-20T05:25:49.567Z,912.00
2019-06-20T05:26:49.554Z,792.00
2019-06-20T05:27:49.553Z,740.00
2019-06-20T05:28:49.581Z,700.00
2019-06-20T05:29:49.533Z,732.00
2019-06-20T05:30:49.530Z,808.00
2019-06-20T05:31:49.512Z,792.00
2019-06-20T05:32:49.498Z,752.00
2019-06-20T05:33:49.478Z,780.00
2019-06-20T05:34:49.482Z,792.00
2019-06-20T05:35:49.464Z,912.00
2019-06-20T05:36:49.454Z,1100.00
2019-06-20T05:37:49.436Z,1188.00
2019-06-20T05:38:49.438Z,1160.00
2019-06-20T05:39:49.441Z,1184.00
2019-06-20T05:40:49.430Z,1264.00
2019-06-20T05:41:49.396Z,1192.00
2019-06-20T05:42:49.380Z,1256.00
2019-06-20T05:43:49.365Z,1400.00
2019-06-20T05:44:49.388Z,1436.00
2019-06-20T05:45:49.349Z,1332.00
2019-06-20T05:46:49.325Z,1368.00
2019-06-20T05:47:49.876Z,1540.00
2019-06-20T05:48:49.324Z,1612.00
2019-06-20T05:49:49.318Z,1652.00
2019-06-20T05:50:49.297Z,1656.00
2019-06-20T05:51:49.281Z,1684.00
2019-06-20T05:52:49.271Z,1716.00
2019-06-20T05:53:49.261Z,1768.00
2019-06-20T05:54:49.259Z,1696.00
2019-06-20T05:55:49.229Z,1572.00
2019-06-20T05:56:49.220Z,1484.00
2019-06-20T05:57:49.225Z,1472.00
2019-06-20T05:58:49.205Z,1716.00
2019-06-20T05:59:49.208Z,2036.00
2019-06-20T06:00:49.219Z,2136.00
2019-06-20T06:01:49.171Z,2100.00
2019-06-20T06:02:49.151Z,2024.00
2019-06-20T06:03:49.136Z,2244.00
2019-06-20T06:04:49.143Z,2576.00
2019-06-20T06:05:49.128Z,2860.00
2019-06-20T06:06:49.108Z,3188.00
2019-06-20T06:07:49.173Z,3460.00
2019-06-20T06:08:49.122Z,3908.00
2019-06-20T06:09:49.133Z,4364.00
2019-06-20T06:10:49.065Z,4984.00
2019-06-20T06:11:49.073Z,5636.00
2019-06-20T06:12:49.040Z,5432.00
2019-06-20T06:13:49.043Z,5416.00
2019-06-20T06:14:49.159Z,5348.00
2019-06-20T06:15:49.011Z,5076.00
2019-06-20T06:16:49.010Z,4628.00
2019-06-20T06:17:48.997Z,4048.00
2019-06-20T06:18:48.982Z,3464.00
2019-06-20T06:19:48.984Z,3060.00
2019-06-20T06:20:48.960Z,2608.00
2019-06-20T06:21:48.942Z,2256.00
2019-06-20T06:22:48.925Z,2212.00
2019-06-20T06:23:48.938Z,2164.00
2019-06-20T06:24:48.927Z,2252.00
2019-06-20T06:25:48.915Z,2488.00
2019-06-20T06:26:48.884Z,2828.00
2019-06-20T06:27:48.875Z,3248.00
2019-06-20T06:28:48.911Z,3964.00
2019-06-20T06:29:48.879Z,4708.00
2019-06-20T06:30:48.841Z,5356.00
2019-06-20T06:31:48.845Z,6092.00
2019-06-20T06:32:48.836Z,7308.00
2019-06-20T06:33:48.815Z,8556.00
2019-06-20T06:34:48.822Z,7260.00
2019-06-20T06:35:48.826Z,9612.00
2019-06-20T06:36:48.813Z,9160.00
2019-06-20T06:37:48.772Z,8644.00
2019-06-20T06:38:48.772Z,7812.00
2019-06-20T06:39:48.757Z,6316.00
2019-06-20T06:40:48.750Z,5752.00
2019-06-20T06:41:48.773Z,4764.00
2019-06-20T06:42:48.716Z,3424.00
2019-06-20T06:43:48.741Z,3740.00
2019-06-20T06:44:48.688Z,3928.00
2019-06-20T06:45:48.699Z,4556.00
2019-06-20T06:46:55.373Z,5148.00
2019-06-20T06:47:48.653Z,6268.00
2019-06-20T06:48:48.646Z,7984.00
2019-06-20T06:49:48.685Z,8872.00
2019-06-20T06:50:48.655Z,8984.00
2019-06-20T06:51:48.607Z,10112.00
2019-06-20T06:52:48.609Z,11908.00
2019-06-20T06:53:48.589Z,12900.00
2019-06-20T06:54:48.610Z,13380.00
2019-06-20T06:55:48.579Z,11152.00
2019-06-20T06:56:48.575Z,8648.00
2019-06-20T06:57:48.555Z,6948.00
2019-06-20T06:58:48.539Z,6144.00
2019-06-20T06:59:48.536Z,5892.00
2019-06-20T07:00:48.553Z,5788.00
2019-06-20T07:01:48.508Z,6100.00
2019-06-20T07:02:49.064Z,7072.00
2019-06-20T07:03:48.483Z,8320.00
2019-06-20T07:04:48.469Z,9392.00
2019-06-20T07:06:57.666Z,8912.00
2019-06-20T07:07:58.643Z,8932.00
2019-06-20T07:08:58.639Z,9836.00
2019-06-20T07:09:58.618Z,14376.00
2019-06-20T07:10:58.619Z,15720.00
2019-06-20T07:11:58.593Z,16480.00
2019-06-20T07:12:58.593Z,16704.00
2019-06-20T07:13:58.630Z,16080.00
2019-06-20T07:14:58.573Z,14556.00
2019-06-20T07:15:58.565Z,16896.00
2019-06-20T07:17:00.569Z,17952.00
2019-06-20T07:17:58.530Z,18784.00
2019-06-20T07:18:58.514Z,20160.00
2019-06-20T07:19:58.514Z,18112.00
2019-06-20T07:20:58.963Z,15508.00
2019-06-20T07:21:58.484Z,13420.00
2019-06-20T07:22:58.473Z,11212.00
2019-06-20T07:23:58.464Z,9924.00
2019-06-20T07:24:58.440Z,9564.00
2019-06-20T07:25:58.453Z,9456.00
2019-06-20T07:26:58.447Z,9540.00
2019-06-20T07:27:58.440Z,9684.00
2019-06-20T07:28:58.396Z,10048.00
2019-06-20T07:29:58.399Z,10652.00
2019-06-20T07:30:58.390Z,11320.00
2019-06-20T07:31:58.399Z,11628.00
2019-06-20T07:32:58.365Z,11852.00
2019-06-20T07:33:58.359Z,11492.00
2019-06-20T07:34:58.348Z,10508.00
2019-06-20T07:35:58.335Z,9768.00
2019-06-20T07:36:58.351Z,9232.00
2019-06-20T07:37:58.303Z,8896.00
2019-06-20T07:38:58.298Z,8180.00
2019-06-20T07:39:58.290Z,7428.00
2019-06-20T07:40:58.299Z,7372.00
2019-06-20T07:41:58.285Z,7668.00
2019-06-20T07:42:58.266Z,8052.00
2019-06-20T07:43:58.233Z,8952.00
2019-06-20T07:44:58.241Z,10448.00
2019-06-20T07:46:02.571Z,11504.00
2019-06-20T07:46:58.223Z,12228.00
2019-06-20T07:47:58.204Z,12960.00
2019-06-20T07:48:58.181Z,13764.00
2019-06-20T07:49:58.172Z,17728.00
2019-06-20T07:50:58.160Z,19264.00
2019-06-20T07:51:58.183Z,20928.00
2019-06-20T07:53:02.526Z,22336.00
2019-06-20T07:53:58.136Z,21024.00
2019-06-20T07:54:58.133Z,20256.00
2019-06-20T07:55:58.108Z,12684.00
2019-06-20T07:56:58.124Z,9788.00
2019-06-20T07:57:58.075Z,8396.00
2019-06-20T07:58:58.061Z,7904.00
2019-06-20T07:59:58.064Z,7956.00
2019-06-20T08:00:58.050Z,6988.00
2019-06-20T08:01:58.058Z,6240.00
2019-06-20T08:02:58.052Z,5520.00
2019-06-20T08:03:58.031Z,4904.00
2019-06-20T08:04:57.999Z,4540.00
2019-06-20T08:05:57.996Z,4512.00
2019-06-20T08:06:57.991Z,4704.00
2019-06-20T08:07:58.042Z,5144.00
2019-06-20T08:08:57.954Z,5652.00
2019-06-20T08:09:57.959Z,6040.00
2019-06-20T08:10:57.939Z,6284.00
2019-06-20T08:11:57.939Z,6656.00
2019-06-20T08:12:57.928Z,7172.00
2019-06-20T08:13:57.916Z,7620.00
2019-06-20T08:15:13.776Z,7900.00
2019-06-20T08:15:57.957Z,7776.00
2019-06-20T08:16:57.870Z,7476.00
2019-06-20T08:17:57.879Z,7208.00
2019-06-20T08:18:57.886Z,7020.00
2019-06-20T08:19:57.850Z,6844.00
2019-06-20T08:20:57.826Z,6716.00
2019-06-20T08:21:57.831Z,6648.00
2019-06-20T08:22:57.842Z,6704.00
2019-06-20T08:23:57.811Z,6896.00
2019-06-20T08:24:58.955Z,7280.00
2019-06-20T08:25:59.191Z,7812.00
2019-06-20T08:26:58.724Z,8452.00
2019-06-20T08:27:59.459Z,9068.00
2019-06-20T08:29:10.160Z,9764.00
2019-06-20T08:29:58.998Z,10640.00
2019-06-20T08:30:58.880Z,11436.00
2019-06-20T08:31:59.395Z,11144.00
2019-06-20T08:32:59.643Z,10748.00
2019-06-20T08:33:58.890Z,10192.00
2019-06-20T08:34:59.063Z,9592.00
2019-06-20T08:35:58.931Z,9004.00
2019-06-20T08:36:58.932Z,8644.00
2019-06-20T08:37:59.193Z,8424.00
2019-06-20T08:38:58.745Z,8308.00
2019-06-20T08:39:58.420Z,8108.00
2019-06-20T08:40:58.362Z,7884.00
2019-06-20T08:41:59.190Z,7548.00
2019-06-20T08:42:58.858Z,7240.00
2019-06-20T08:43:58.394Z,6880.00
2019-06-20T08:44:57.909Z,6464.00
2019-06-20T08:45:57.873Z,5988.00
2019-06-20T08:46:59.217Z,5508.00
2019-06-20T08:47:58.304Z,5144.00
2019-06-20T08:48:58.256Z,4784.00
2019-06-20T08:49:58.180Z,4428.00
2019-06-20T08:50:58.522Z,4116.00
2019-06-20T08:51:57.488Z,3760.00
2019-06-20T08:52:58.015Z,3420.00
2019-06-20T08:53:58.199Z,3084.00
2019-06-20T08:54:58.244Z,2748.00
2019-06-20T08:55:59.266Z,2448.00
2019-06-20T08:56:58.982Z,2224.00
2019-06-20T08:57:58.253Z,1980.00
2019-06-20T08:58:58.532Z,1764.00
2019-06-20T08:59:58.788Z,1652.00
2019-06-20T09:00:59.666Z,1652.00
2019-06-20T09:01:59.965Z,1680.00
2019-06-20T09:02:58.615Z,1704.00
2019-06-20T09:03:58.292Z,1744.00
2019-06-20T09:04:58.039Z,1692.00
2019-06-20T09:05:58.256Z,1712.00
2019-06-20T09:08:06.561Z,2548.00
2019-06-20T09:09:07.507Z,3044.00
2019-06-20T09:10:07.476Z,3664.00
2019-06-20T09:11:07.473Z,4052.00
2019-06-20T09:12:07.457Z,4324.00
2019-06-20T09:13:07.453Z,4696.00
2019-06-20T09:14:07.458Z,5244.00
2019-06-20T09:15:07.434Z,6008.00
2019-06-20T09:16:07.420Z,7084.00
2019-06-20T09:17:07.422Z,8668.00
2019-06-20T09:18:07.402Z,11772.00
2019-06-20T09:19:07.416Z,20672.00
2019-06-20T09:20:07.387Z,17248.00
2019-06-20T09:21:07.370Z,13848.00
2019-06-20T09:22:07.358Z,15092.00
2019-06-20T09:23:07.342Z,15884.00
2019-06-20T09:24:07.356Z,15460.00
2019-06-20T09:25:07.318Z,15652.00
2019-06-20T09:26:07.322Z,17216.00
2019-06-20T09:27:07.304Z,22752.00
2019-06-20T09:28:07.276Z,20256.00
2019-06-20T09:29:07.288Z,20128.00
2019-06-20T09:30:07.254Z,23136.00
2019-06-20T09:31:07.451Z,20480.00
2019-06-20T09:32:07.249Z,21408.00
2019-06-20T09:33:07.232Z,19552.00
2019-06-20T09:34:07.269Z,19200.00
2019-06-20T09:35:07.216Z,19008.00
2019-06-20T09:36:07.197Z,17952.00
2019-06-20T09:37:07.189Z,17088.00
2019-06-20T09:38:07.165Z,16832.00
2019-06-20T09:39:07.179Z,17248.00
2019-06-20T09:40:07.150Z,17472.00
2019-06-20T09:41:07.146Z,16768.00
2019-06-20T09:42:07.133Z,16512.00
2019-06-20T09:43:07.119Z,18944.00
2019-06-20T09:44:07.133Z,24032.00
2019-06-20T09:45:07.117Z,18784.00
2019-06-20T09:46:07.100Z,18112.00
2019-06-20T09:47:07.106Z,18752.00
2019-06-20T09:48:07.094Z,17792.00
2019-06-20T09:49:07.083Z,17568.00
2019-06-20T09:50:07.053Z,16300.00
2019-06-20T09:51:07.042Z,17472.00
2019-06-20T09:52:07.032Z,16252.00
2019-06-20T09:53:07.016Z,20192.00
2019-06-20T09:54:07.007Z,16736.00
2019-06-20T09:55:07.011Z,16196.00
2019-06-20T09:56:06.983Z,21568.00
2019-06-20T09:57:06.969Z,24576.00
2019-06-20T09:58:06.989Z,20000.00
2019-06-20T09:59:06.957Z,13864.00
2019-06-20T10:00:10.397Z,14392.00
2019-06-20T10:01:06.929Z,14536.00
2019-06-20T10:02:06.906Z,14540.00
2019-06-20T10:03:06.908Z,14092.00
2019-06-20T10:04:06.922Z,14120.00
2019-06-20T10:05:06.896Z,14872.00
2019-06-20T10:06:14.053Z,15440.00
2019-06-20T10:07:06.852Z,14404.00
2019-06-20T10:08:06.855Z,13060.00
2019-06-20T10:09:06.848Z,12740.00
2019-06-20T10:10:06.858Z,12960.00
2019-06-20T10:11:06.810Z,14516.00
2019-06-20T10:12:06.798Z,17952.00
2019-06-20T10:13:06.799Z,27712.00
2019-06-20T10:14:06.797Z,26976.00
2019-06-20T10:15:06.789Z,24416.00
2019-06-20T10:16:06.758Z,26752.00
2019-06-20T10:17:06.750Z,27424.00
2019-06-20T10:18:06.735Z,17088.00
2019-06-20T10:19:06.746Z,18560.00
2019-06-20T10:20:06.739Z,16608.00
2019-06-20T10:21:06.712Z,16280.00
2019-06-20T10:22:06.697Z,18272.00
2019-06-20T10:23:06.714Z,18304.00
2019-06-20T10:24:06.678Z,21472.00
2019-06-20T10:25:06.668Z,27616.00
2019-06-20T10:26:06.644Z,23232.00
2019-06-20T10:27:06.642Z,20640.00
2019-06-20T10:28:06.639Z,18496.00
2019-06-20T10:29:06.617Z,17888.00
2019-06-20T10:30:14.445Z,16960.00
2019-06-20T10:31:06.597Z,15556.00
2019-06-20T10:32:06.593Z,14604.00
2019-06-20T10:33:06.576Z,14152.00
2019-06-20T10:34:06.559Z,13980.00
2019-06-20T10:35:06.568Z,13928.00
2019-06-20T10:36:06.557Z,14208.00
2019-06-20T10:37:06.544Z,14928.00
2019-06-20T10:38:06.531Z,16672.00
2019-06-20T10:39:06.513Z,19872.00
2019-06-20T10:40:06.537Z,12900.00
2019-06-20T10:41:06.493Z,11184.00
2019-06-20T10:42:06.480Z,10064.00
2019-06-20T10:43:06.460Z,9192.00
2019-06-20T10:44:06.455Z,8664.00
2019-06-20T10:45:06.460Z,8280.00
2019-06-20T10:46:06.454Z,7972.00
2019-06-20T10:47:06.432Z,7616.00
2019-06-20T10:48:06.406Z,7188.00
2019-06-20T10:49:06.387Z,6884.00
2019-06-20T10:50:06.418Z,6764.00
2019-06-20T10:51:06.398Z,6868.00
2019-06-20T10:52:06.378Z,6932.00
2019-06-20T10:53:06.343Z,6640.00
2019-06-20T10:54:06.344Z,6492.00
2019-06-20T10:55:06.329Z,6600.00
2019-06-20T10:56:06.342Z,6864.00
2019-06-20T10:57:06.304Z,7392.00
2019-06-20T10:58:06.333Z,15456.00
2019-06-20T10:59:06.286Z,10944.00
2019-06-20T11:00:06.347Z,9920.00
2019-06-20T11:01:06.285Z,14244.00
2019-06-20T11:02:07.266Z,12116.00
2019-06-20T11:03:06.249Z,15712.00
2019-06-20T11:04:06.237Z,8828.00
2019-06-20T11:05:06.217Z,8268.00
2019-06-20T11:06:06.228Z,8168.00
2019-06-20T11:07:06.229Z,8140.00
2019-06-20T11:09:15.387Z,8812.00
2019-06-20T11:10:16.365Z,10920.00
2019-06-20T11:11:16.378Z,13048.00
2019-06-20T11:12:16.343Z,12576.00
2019-06-20T11:13:16.333Z,15992.00
2019-06-20T11:14:16.318Z,26432.00
2019-06-20T11:15:16.321Z,19296.00
2019-06-20T11:16:16.324Z,17536.00
2019-06-20T11:17:16.300Z,23392.00
2019-06-20T11:18:16.280Z,24128.00
2019-06-20T11:19:16.269Z,17728.00
2019-06-20T11:20:16.252Z,28544.00
2019-06-20T11:21:16.271Z,28384.00
2019-06-20T11:22:16.232Z,27744.00
2019-06-20T11:23:16.232Z,26208.00
2019-06-20T11:24:16.220Z,21024.00
2019-06-20T11:25:18.966Z,24576.00
2019-06-20T11:26:16.266Z,25152.00
2019-06-20T11:27:16.183Z,25856.00
2019-06-20T11:28:16.177Z,26144.00
2019-06-20T11:29:16.218Z,26432.00
2019-06-20T11:30:16.157Z,25568.00
2019-06-20T11:31:16.232Z,25760.00
2019-06-20T11:32:16.155Z,25760.00
2019-06-20T11:33:16.134Z,24736.00
2019-06-20T11:34:16.107Z,25472.00
2019-06-20T11:35:16.096Z,25216.00
2019-06-20T11:36:16.093Z,24128.00
2019-06-20T11:37:16.092Z,17568.00
2019-06-20T11:38:16.096Z,23552.00
2019-06-20T11:39:16.061Z,23552.00
2019-06-20T11:40:16.046Z,24096.00
2019-06-20T11:41:16.032Z,23456.00
2019-06-20T11:42:16.037Z,14900.00
2019-06-20T11:43:16.010Z,19968.00
2019-06-20T11:44:16.010Z,18208.00
2019-06-20T11:45:15.995Z,21120.00
2019-06-20T11:46:15.991Z,9404.00
2019-06-20T11:47:16.004Z,9416.00
2019-06-20T11:48:15.959Z,9764.00
2019-06-20T11:49:15.978Z,10692.00
2019-06-20T11:50:15.946Z,11612.00
2019-06-20T11:51:15.927Z,13896.00
2019-06-20T11:52:15.933Z,15248.00
2019-06-20T11:53:15.925Z,14180.00
2019-06-20T11:54:15.902Z,15448.00
2019-06-20T11:55:15.887Z,21152.00
2019-06-20T11:56:15.878Z,17248.00
2019-06-20T11:57:15.885Z,23424.00
2019-06-20T11:58:15.849Z,19328.00
2019-06-20T11:59:15.874Z,15400.00
2019-06-20T12:00:15.837Z,14236.00
2019-06-20T12:01:15.820Z,13772.00
2019-06-20T12:02:15.828Z,15664.00
2019-06-20T12:03:15.805Z,13352.00
2019-06-20T12:04:15.818Z,16928.00
2019-06-20T12:05:15.776Z,13632.00
2019-06-20T12:06:15.774Z,13892.00
2019-06-20T12:07:15.784Z,21248.00
2019-06-20T12:08:15.746Z,10620.00
2019-06-20T12:09:15.745Z,14072.00
2019-06-20T12:10:15.727Z,15168.00
2019-06-20T12:11:15.720Z,16128.00
2019-06-20T12:12:15.721Z,11224.00
2019-06-20T12:13:15.700Z,17088.00
2019-06-20T12:14:15.681Z,11728.00
2019-06-20T12:15:15.677Z,14788.00
2019-06-20T12:16:15.680Z,22688.00
2019-06-20T12:17:15.710Z,23936.00
2019-06-20T12:18:15.634Z,23168.00
2019-06-20T12:19:15.631Z,23776.00
2019-06-20T12:20:15.662Z,24256.00
2019-06-20T12:21:15.667Z,18048.00
2019-06-20T12:22:15.641Z,12012.00
2019-06-20T12:23:15.591Z,11604.00
2019-06-20T12:24:16.147Z,11924.00
2019-06-20T12:25:15.572Z,12112.00